Terminal Aerodrome Forecast
Issued by NWS

Home | Current Version | Previous Version | Text Only | Print | Product List | Glossary On
Versions: 1 2 3 4 5 6 7 8 9 10 11 12 13 14 15 16 17 18
000
FTUS41 KPHI 280500 RRA
TAFPNE
TAF
KPNE 280543Z 2806/2906 22008KT P6SM SCT050 BKN120
      TEMPO 2806/2808 4SM -SHRA FEW005 BKN015
     FM280800 26008KT P6SM OVC020
     FM281300 27019G26KT P6SM BKN040
     FM282200 29012KT P6SM SCT045=

USA.gov is the U.S. government's official web portal to all federal, state and local government web resources and services.